Terminal Aerodrome Forecast
Issued by NWS

Home | Current Version | Previous Version | Text Only | Print | Product List | Glossary On
Versions: 1 2 3 4 5 6 7 8 9 10 11 12 13 14 15 16 17 18 19
000
FTUS45 KBOU 271612 AAA
TAFAPA
TAF AMD
KAPA 271612Z 2716/2812 20012G22KT P6SM FEW220
     FM271800 24016G26KT P6SM SCT220
     FM280600 27009KT P6SM SCT050 BKN110=

USA.gov is the U.S. government's official web portal to all federal, state and local government web resources and services.